sensor_id;sensor_type;location;lat;lon;timestamp;P1;durP1;ratioP1;P2;durP2;ratioP2
43891;SDS011;29555;45.350;5.578;2022-11-30T00:02:21;21.83;;;11.38;;
43891;SDS011;29555;45.350;5.578;2022-11-30T00:04:47;13.43;;;10.63;;
43891;SDS011;29555;45.350;5.578;2022-11-30T00:07:12;17.75;;;11.60;;
43891;SDS011;29555;45.350;5.578;2022-11-30T00:09:38;15.13;;;11.52;;
43891;SDS011;29555;45.350;5.578;2022-11-30T00:12:03;18.10;;;11.75;;
43891;SDS011;29555;45.350;5.578;2022-11-30T00:14:29;13.73;;;10.38;;
43891;SDS011;29555;45.350;5.578;2022-11-30T00:16:54;16.63;;;11.57;;
43891;SDS011;29555;45.350;5.578;2022-11-30T00:19:19;17.13;;;11.68;;
43891;SDS011;29555;45.350;5.578;2022-11-30T00:21:45;16.00;;;11.68;;
43891;SDS011;29555;45.350;5.578;2022-11-30T00:24:10;15.52;;;11.07;;
43891;SDS011;29555;45.350;5.578;2022-11-30T00:26:35;14.15;;;10.55;;
43891;SDS011;29555;45.350;5.578;2022-11-30T00:29:01;13.98;;;10.70;;
43891;SDS011;29555;45.350;5.578;2022-11-30T00:31:26;20.65;;;12.35;;
43891;SDS011;29555;45.350;5.578;2022-11-30T00:33:52;20.55;;;11.55;;
43891;SDS011;29555;45.350;5.578;2022-11-30T00:36:18;18.60;;;13.43;;
43891;SDS011;29555;45.350;5.578;2022-11-30T00:38:49;90.45;;;39.97;;
43891;SDS011;29555;45.350;5.578;2022-11-30T00:41:15;54.45;;;28.52;;
43891;SDS011;29555;45.350;5.578;2022-11-30T00:43:42;26.75;;;16.60;;
43891;SDS011;29555;45.350;5.578;2022-11-30T00:46:07;25.98;;;13.23;;
43891;SDS011;29555;45.350;5.578;2022-11-30T00:48:34;18.98;;;11.35;;
43891;SDS011;29555;45.350;5.578;2022-11-30T00:51:00;17.52;;;12.43;;
43891;SDS011;29555;45.350;5.578;2022-11-30T00:53:25;22.98;;;15.85;;
43891;SDS011;29555;45.350;5.578;2022-11-30T00:55:51;18.00;;;12.70;;
43891;SDS011;29555;45.350;5.578;2022-11-30T00:58:16;16.60;;;12.30;;
43891;SDS011;29555;45.350;5.578;2022-11-30T01:00:42;16.27;;;11.15;;
43891;SDS011;29555;45.350;5.578;2022-11-30T01:03:08;17.38;;;11.98;;
43891;SDS011;29555;45.350;5.578;2022-11-30T01:05:33;17.20;;;10.82;;
43891;SDS011;29555;45.350;5.578;2022-11-30T01:08:00;14.43;;;11.15;;
43891;SDS011;29555;45.350;5.578;2022-11-30T01:10:29;13.15;;;11.45;;
43891;SDS011;29555;45.350;5.578;2022-11-30T01:12:55;15.80;;;10.30;;
43891;SDS011;29555;45.350;5.578;2022-11-30T01:15:20;16.58;;;10.43;;
43891;SDS011;29555;45.350;5.578;2022-11-30T01:17:46;17.08;;;10.95;;
43891;SDS011;29555;45.350;5.578;2022-11-30T01:20:11;16.65;;;11.48;;
43891;SDS011;29555;45.350;5.578;2022-11-30T01:22:37;15.82;;;11.15;;
43891;SDS011;29555;45.350;5.578;2022-11-30T01:25:02;28.92;;;13.38;;
43891;SDS011;29555;45.350;5.578;2022-11-30T01:27:28;21.27;;;13.93;;
43891;SDS011;29555;45.350;5.578;2022-11-30T01:29:54;71.53;;;36.75;;
43891;SDS011;29555;45.350;5.578;2022-11-30T01:32:19;34.60;;;19.67;;
43891;SDS011;29555;45.350;5.578;2022-11-30T01:34:44;28.95;;;17.80;;
43891;SDS011;29555;45.350;5.578;2022-11-30T01:37:10;20.40;;;13.80;;
43891;SDS011;29555;45.350;5.578;2022-11-30T01:39:35;17.23;;;12.60;;
43891;SDS011;29555;45.350;5.578;2022-11-30T01:42:00;51.85;;;27.92;;
43891;SDS011;29555;45.350;5.578;2022-11-30T01:49:29;23.88;;;15.35;;
43891;SDS011;29555;45.350;5.578;2022-11-30T01:51:58;24.20;;;17.10;;
43891;SDS011;29555;45.350;5.578;2022-11-30T01:54:34;17.80;;;13.07;;
43891;SDS011;29555;45.350;5.578;2022-11-30T01:57:08;21.98;;;12.02;;
43891;SDS011;29555;45.350;5.578;2022-11-30T01:59:44;15.00;;;12.00;;
43891;SDS011;29555;45.350;5.578;2022-11-30T02:02:11;14.30;;;10.02;;
43891;SDS011;29555;45.350;5.578;2022-11-30T02:04:37;25.30;;;12.18;;
43891;SDS011;29555;45.350;5.578;2022-11-30T02:07:03;15.25;;;10.80;;
43891;SDS011;29555;45.350;5.578;2022-11-30T02:09:30;15.18;;;10.18;;
43891;SDS011;29555;45.350;5.578;2022-11-30T02:12:02;14.13;;;8.73;;
43891;SDS011;29555;45.350;5.578;2022-11-30T02:14:33;20.67;;;10.48;;
43891;SDS011;29555;45.350;5.578;2022-11-30T02:22:40;25.65;;;14.00;;
43891;SDS011;29555;45.350;5.578;2022-11-30T02:25:28;23.45;;;14.93;;
43891;SDS011;29555;45.350;5.578;2022-11-30T02:28:06;27.40;;;16.33;;
43891;SDS011;29555;45.350;5.578;2022-11-30T02:30:39;27.90;;;15.88;;
43891;SDS011;29555;45.350;5.578;2022-11-30T02:33:11;23.52;;;16.35;;
43891;SDS011;29555;45.350;5.578;2022-11-30T02:35:39;30.20;;;20.48;;
43891;SDS011;29555;45.350;5.578;2022-11-30T02:38:08;32.47;;;18.23;;
43891;SDS011;29555;45.350;5.578;2022-11-30T02:40:34;29.75;;;20.05;;
43891;SDS011;29555;45.350;5.578;2022-11-30T02:43:00;33.13;;;18.48;;
43891;SDS011;29555;45.350;5.578;2022-11-30T02:48:09;29.15;;;19.20;;
43891;SDS011;29555;45.350;5.578;2022-11-30T02:50:55;25.05;;;14.88;;
43891;SDS011;29555;45.350;5.578;2022-11-30T02:53:24;21.60;;;14.93;;
43891;SDS011;29555;45.350;5.578;2022-11-30T02:55:50;28.63;;;17.30;;
43891;SDS011;29555;45.350;5.578;2022-11-30T02:58:16;28.92;;;17.20;;
43891;SDS011;29555;45.350;5.578;2022-11-30T03:00:42;26.42;;;16.40;;
43891;SDS011;29555;45.350;5.578;2022-11-30T03:03:07;21.48;;;16.42;;
43891;SDS011;29555;45.350;5.578;2022-11-30T03:05:33;24.75;;;17.50;;
43891;SDS011;29555;45.350;5.578;2022-11-30T03:07:59;21.77;;;15.68;;
43891;SDS011;29555;45.350;5.578;2022-11-30T03:10:24;20.58;;;14.23;;
43891;SDS011;29555;45.350;5.578;2022-11-30T03:12:50;26.10;;;16.85;;
43891;SDS011;29555;45.350;5.578;2022-11-30T03:15:15;21.02;;;15.27;;
43891;SDS011;29555;45.350;5.578;2022-11-30T03:17:40;34.78;;;22.40;;
43891;SDS011;29555;45.350;5.578;2022-11-30T03:20:06;26.45;;;17.05;;
43891;SDS011;29555;45.350;5.578;2022-11-30T03:22:32;27.08;;;17.13;;
43891;SDS011;29555;45.350;5.578;2022-11-30T03:24:57;40.03;;;22.10;;
43891;SDS011;29555;45.350;5.578;2022-11-30T03:27:23;24.73;;;18.23;;
43891;SDS011;29555;45.350;5.578;2022-11-30T03:29:48;28.45;;;18.17;;
43891;SDS011;29555;45.350;5.578;2022-11-30T03:32:13;24.45;;;17.75;;
43891;SDS011;29555;45.350;5.578;2022-11-30T03:34:39;22.77;;;15.45;;
43891;SDS011;29555;45.350;5.578;2022-11-30T03:37:04;20.25;;;13.95;;
43891;SDS011;29555;45.350;5.578;2022-11-30T03:39:30;29.75;;;17.15;;
43891;SDS011;29555;45.350;5.578;2022-11-30T03:41:55;19.35;;;12.85;;
43891;SDS011;29555;45.350;5.578;2022-11-30T03:44:21;19.55;;;12.68;;
43891;SDS011;29555;45.350;5.578;2022-11-30T03:46:46;21.70;;;13.25;;
43891;SDS011;29555;45.350;5.578;2022-11-30T03:49:11;17.48;;;13.93;;
43891;SDS011;29555;45.350;5.578;2022-11-30T03:51:37;17.98;;;14.23;;
43891;SDS011;29555;45.350;5.578;2022-11-30T03:54:02;19.88;;;13.73;;
43891;SDS011;29555;45.350;5.578;2022-11-30T03:56:28;17.77;;;13.30;;
43891;SDS011;29555;45.350;5.578;2022-11-30T03:58:53;17.52;;;13.60;;
43891;SDS011;29555;45.350;5.578;2022-11-30T04:01:19;19.40;;;14.00;;
43891;SDS011;29555;45.350;5.578;2022-11-30T04:03:47;17.30;;;14.13;;
43891;SDS011;29555;45.350;5.578;2022-11-30T04:06:13;17.55;;;11.90;;
43891;SDS011;29555;45.350;5.578;2022-11-30T04:08:39;18.10;;;14.00;;
43891;SDS011;29555;45.350;5.578;2022-11-30T04:11:05;15.70;;;13.18;;
43891;SDS011;29555;45.350;5.578;2022-11-30T04:13:31;15.82;;;13.10;;
43891;SDS011;29555;45.350;5.578;2022-11-30T04:15:58;18.58;;;13.32;;
43891;SDS011;29555;45.350;5.578;2022-11-30T04:18:24;18.05;;;13.98;;
43891;SDS011;29555;45.350;5.578;2022-11-30T04:20:52;17.73;;;12.15;;
43891;SDS011;29555;45.350;5.578;2022-11-30T04:23:18;16.63;;;12.00;;
43891;SDS011;29555;45.350;5.578;2022-11-30T04:25:44;22.50;;;14.27;;
43891;SDS011;29555;45.350;5.578;2022-11-30T04:28:11;19.33;;;14.27;;
43891;SDS011;29555;45.350;5.578;2022-11-30T04:30:37;17.77;;;13.15;;
43891;SDS011;29555;45.350;5.578;2022-11-30T04:33:03;22.02;;;14.40;;
43891;SDS011;29555;45.350;5.578;2022-11-30T04:35:29;21.58;;;13.98;;
43891;SDS011;29555;45.350;5.578;2022-11-30T04:37:54;19.40;;;13.60;;
43891;SDS011;29555;45.350;5.578;2022-11-30T04:40:20;18.48;;;13.45;;
43891;SDS011;29555;45.350;5.578;2022-11-30T04:42:45;17.55;;;13.05;;
43891;SDS011;29555;45.350;5.578;2022-11-30T04:45:11;18.25;;;14.00;;
43891;SDS011;29555;45.350;5.578;2022-11-30T04:47:37;20.45;;;13.68;;
43891;SDS011;29555;45.350;5.578;2022-11-30T04:50:03;23.15;;;13.07;;
43891;SDS011;29555;45.350;5.578;2022-11-30T04:52:29;21.45;;;13.85;;
43891;SDS011;29555;45.350;5.578;2022-11-30T04:54:55;18.05;;;13.93;;
43891;SDS011;29555;45.350;5.578;2022-11-30T04:57:21;15.98;;;12.43;;
43891;SDS011;29555;45.350;5.578;2022-11-30T04:59:47;18.30;;;14.07;;
43891;SDS011;29555;45.350;5.578;2022-11-30T05:02:12;16.65;;;11.35;;
43891;SDS011;29555;45.350;5.578;2022-11-30T05:04:37;18.42;;;12.73;;
43891;SDS011;29555;45.350;5.578;2022-11-30T05:07:03;20.20;;;14.00;;
43891;SDS011;29555;45.350;5.578;2022-11-30T05:09:28;21.60;;;12.90;;
43891;SDS011;29555;45.350;5.578;2022-11-30T05:11:53;15.38;;;13.02;;
43891;SDS011;29555;45.350;5.578;2022-11-30T05:14:19;21.83;;;14.07;;
43891;SDS011;29555;45.350;5.578;2022-11-30T05:16:47;19.70;;;13.30;;
43891;SDS011;29555;45.350;5.578;2022-11-30T05:19:13;23.90;;;15.73;;
43891;SDS011;29555;45.350;5.578;2022-11-30T05:21:42;19.63;;;13.73;;
43891;SDS011;29555;45.350;5.578;2022-11-30T05:24:07;21.70;;;16.58;;
43891;SDS011;29555;45.350;5.578;2022-11-30T05:26:33;29.02;;;16.98;;
43891;SDS011;29555;45.350;5.578;2022-11-30T05:28:59;29.85;;;18.70;;
43891;SDS011;29555;45.350;5.578;2022-11-30T05:31:25;20.45;;;15.70;;
43891;SDS011;29555;45.350;5.578;2022-11-30T05:33:51;25.83;;;14.70;;
43891;SDS011;29555;45.350;5.578;2022-11-30T05:36:16;17.95;;;12.02;;
43891;SDS011;29555;45.350;5.578;2022-11-30T05:38:42;21.98;;;15.85;;
43891;SDS011;29555;45.350;5.578;2022-11-30T05:41:08;25.98;;;19.65;;
43891;SDS011;29555;45.350;5.578;2022-11-30T05:43:33;33.03;;;20.40;;
43891;SDS011;29555;45.350;5.578;2022-11-30T05:45:59;29.55;;;20.45;;
43891;SDS011;29555;45.350;5.578;2022-11-30T05:48:26;18.90;;;13.55;;
43891;SDS011;29555;45.350;5.578;2022-11-30T05:50:51;17.20;;;11.00;;
43891;SDS011;29555;45.350;5.578;2022-11-30T05:53:16;15.35;;;10.30;;
43891;SDS011;29555;45.350;5.578;2022-11-30T05:55:42;14.93;;;10.40;;
43891;SDS011;29555;45.350;5.578;2022-11-30T05:58:07;11.38;;;8.65;;
43891;SDS011;29555;45.350;5.578;2022-11-30T06:00:32;10.88;;;9.05;;
43891;SDS011;29555;45.350;5.578;2022-11-30T06:02:58;15.43;;;10.35;;
43891;SDS011;29555;45.350;5.578;2022-11-30T06:05:24;16.08;;;10.45;;
43891;SDS011;29555;45.350;5.578;2022-11-30T06:07:50;14.07;;;9.60;;
43891;SDS011;29555;45.350;5.578;2022-11-30T06:10:15;17.58;;;10.60;;
43891;SDS011;29555;45.350;5.578;2022-11-30T06:12:41;29.85;;;15.02;;
43891;SDS011;29555;45.350;5.578;2022-11-30T06:15:06;94.43;;;45.40;;
43891;SDS011;29555;45.350;5.578;2022-11-30T06:17:32;93.75;;;44.70;;
43891;SDS011;29555;45.350;5.578;2022-11-30T06:19:58;110.53;;;52.67;;
43891;SDS011;29555;45.350;5.578;2022-11-30T06:22:23;68.40;;;43.28;;
43891;SDS011;29555;45.350;5.578;2022-11-30T06:24:49;35.85;;;22.88;;
43891;SDS011;29555;45.350;5.578;2022-11-30T06:27:14;34.30;;;23.42;;
43891;SDS011;29555;45.350;5.578;2022-11-30T06:29:40;44.53;;;27.27;;
43891;SDS011;29555;45.350;5.578;2022-11-30T06:32:06;31.70;;;17.08;;
43891;SDS011;29555;45.350;5.578;2022-11-30T06:34:32;41.40;;;25.05;;
43891;SDS011;29555;45.350;5.578;2022-11-30T06:36:57;21.15;;;16.02;;
43891;SDS011;29555;45.350;5.578;2022-11-30T06:39:23;32.95;;;21.15;;
43891;SDS011;29555;45.350;5.578;2022-11-30T06:41:48;22.83;;;15.57;;
43891;SDS011;29555;45.350;5.578;2022-11-30T06:44:14;43.63;;;26.85;;
43891;SDS011;29555;45.350;5.578;2022-11-30T06:46:39;50.22;;;31.10;;
43891;SDS011;29555;45.350;5.578;2022-11-30T06:49:06;95.00;;;51.88;;
43891;SDS011;29555;45.350;5.578;2022-11-30T06:51:32;44.17;;;28.13;;
43891;SDS011;29555;45.350;5.578;2022-11-30T06:53:58;62.83;;;33.42;;
43891;SDS011;29555;45.350;5.578;2022-11-30T06:56:24;58.58;;;29.20;;
43891;SDS011;29555;45.350;5.578;2022-11-30T06:58:50;46.63;;;25.48;;
43891;SDS011;29555;45.350;5.578;2022-11-30T07:01:18;52.03;;;26.63;;
43891;SDS011;29555;45.350;5.578;2022-11-30T07:03:43;28.75;;;18.02;;
43891;SDS011;29555;45.350;5.578;2022-11-30T07:06:10;26.80;;;19.02;;
43891;SDS011;29555;45.350;5.578;2022-11-30T07:08:38;26.85;;;18.33;;
43891;SDS011;29555;45.350;5.578;2022-11-30T07:11:05;17.00;;;12.05;;
43891;SDS011;29555;45.350;5.578;2022-11-30T07:13:32;17.33;;;12.48;;
43891;SDS011;29555;45.350;5.578;2022-11-30T07:16:01;17.33;;;11.85;;
43891;SDS011;29555;45.350;5.578;2022-11-30T07:18:31;25.50;;;12.13;;
43891;SDS011;29555;45.350;5.578;2022-11-30T07:20:58;16.15;;;10.63;;
43891;SDS011;29555;45.350;5.578;2022-11-30T07:23:26;20.52;;;12.15;;
43891;SDS011;29555;45.350;5.578;2022-11-30T07:26:10;25.02;;;16.95;;
43891;SDS011;29555;45.350;5.578;2022-11-30T07:28:40;31.75;;;19.27;;
43891;SDS011;29555;45.350;5.578;2022-11-30T07:33:40;25.90;;;15.57;;
43891;SDS011;29555;45.350;5.578;2022-11-30T07:36:06;19.30;;;13.35;;
43891;SDS011;29555;45.350;5.578;2022-11-30T07:38:33;18.95;;;13.27;;
43891;SDS011;29555;45.350;5.578;2022-11-30T07:40:58;21.00;;;13.50;;
43891;SDS011;29555;45.350;5.578;2022-11-30T07:43:24;13.98;;;8.90;;
43891;SDS011;29555;45.350;5.578;2022-11-30T07:45:50;15.23;;;10.80;;
43891;SDS011;29555;45.350;5.578;2022-11-30T07:48:17;17.63;;;9.95;;
43891;SDS011;29555;45.350;5.578;2022-11-30T07:50:45;13.75;;;9.80;;
43891;SDS011;29555;45.350;5.578;2022-11-30T07:53:11;14.40;;;10.52;;
43891;SDS011;29555;45.350;5.578;2022-11-30T07:55:36;14.65;;;9.50;;
43891;SDS011;29555;45.350;5.578;2022-11-30T07:58:01;35.75;;;10.30;;
43891;SDS011;29555;45.350;5.578;2022-11-30T08:00:27;14.68;;;9.88;;
43891;SDS011;29555;45.350;5.578;2022-11-30T08:02:52;10.48;;;8.13;;
43891;SDS011;29555;45.350;5.578;2022-11-30T08:05:18;12.02;;;7.82;;
43891;SDS011;29555;45.350;5.578;2022-11-30T08:07:43;15.02;;;8.88;;
43891;SDS011;29555;45.350;5.578;2022-11-30T08:10:10;16.45;;;8.73;;
43891;SDS011;29555;45.350;5.578;2022-11-30T08:12:36;14.38;;;9.75;;
43891;SDS011;29555;45.350;5.578;2022-11-30T08:15:01;13.45;;;9.50;;
43891;SDS011;29555;45.350;5.578;2022-11-30T08:17:27;13.93;;;9.45;;
43891;SDS011;29555;45.350;5.578;2022-11-30T08:19:52;13.80;;;9.93;;
43891;SDS011;29555;45.350;5.578;2022-11-30T08:22:17;13.60;;;9.15;;
43891;SDS011;29555;45.350;5.578;2022-11-30T08:24:43;17.88;;;10.07;;
43891;SDS011;29555;45.350;5.578;2022-11-30T08:27:08;19.63;;;9.82;;
43891;SDS011;29555;45.350;5.578;2022-11-30T08:29:33;16.30;;;11.15;;
43891;SDS011;29555;45.350;5.578;2022-11-30T08:31:59;16.20;;;10.90;;
43891;SDS011;29555;45.350;5.578;2022-11-30T08:34:24;15.48;;;9.38;;
43891;SDS011;29555;45.350;5.578;2022-11-30T08:36:50;23.30;;;11.88;;
43891;SDS011;29555;45.350;5.578;2022-11-30T08:39:16;13.15;;;8.48;;
43891;SDS011;29555;45.350;5.578;2022-11-30T08:41:41;16.23;;;11.38;;
43891;SDS011;29555;45.350;5.578;2022-11-30T08:44:07;18.17;;;11.98;;
43891;SDS011;29555;45.350;5.578;2022-11-30T08:46:32;20.02;;;12.38;;
43891;SDS011;29555;45.350;5.578;2022-11-30T08:48:58;26.40;;;13.85;;
43891;SDS011;29555;45.350;5.578;2022-11-30T08:51:24;23.80;;;14.77;;
43891;SDS011;29555;45.350;5.578;2022-11-30T08:53:49;17.20;;;11.68;;
43891;SDS011;29555;45.350;5.578;2022-11-30T08:56:18;18.88;;;12.77;;
43891;SDS011;29555;45.350;5.578;2022-11-30T08:58:45;14.88;;;10.00;;
43891;SDS011;29555;45.350;5.578;2022-11-30T09:03:38;19.08;;;11.68;;
43891;SDS011;29555;45.350;5.578;2022-11-30T09:06:16;15.43;;;11.13;;
43891;SDS011;29555;45.350;5.578;2022-11-30T09:08:44;17.67;;;12.35;;
43891;SDS011;29555;45.350;5.578;2022-11-30T09:11:22;22.48;;;11.68;;
43891;SDS011;29555;45.350;5.578;2022-11-30T09:13:54;18.48;;;11.18;;
43891;SDS011;29555;45.350;5.578;2022-11-30T09:16:22;17.95;;;13.38;;
43891;SDS011;29555;45.350;5.578;2022-11-30T09:18:48;16.50;;;11.43;;
43891;SDS011;29555;45.350;5.578;2022-11-30T09:21:16;15.55;;;11.55;;
43891;SDS011;29555;45.350;5.578;2022-11-30T09:23:43;15.57;;;10.55;;
43891;SDS011;29555;45.350;5.578;2022-11-30T09:26:11;17.23;;;12.50;;
43891;SDS011;29555;45.350;5.578;2022-11-30T09:28:37;15.07;;;10.73;;
43891;SDS011;29555;45.350;5.578;2022-11-30T09:31:04;15.10;;;11.13;;
43891;SDS011;29555;45.350;5.578;2022-11-30T09:33:32;17.13;;;11.25;;
43891;SDS011;29555;45.350;5.578;2022-11-30T09:35:58;16.58;;;10.63;;
43891;SDS011;29555;45.350;5.578;2022-11-30T09:38:25;14.27;;;11.13;;
43891;SDS011;29555;45.350;5.578;2022-11-30T09:40:54;16.27;;;11.15;;
43891;SDS011;29555;45.350;5.578;2022-11-30T09:46:17;17.73;;;9.38;;
43891;SDS011;29555;45.350;5.578;2022-11-30T09:49:02;12.70;;;8.35;;
43891;SDS011;29555;45.350;5.578;2022-11-30T09:51:43;9.88;;;7.82;;
43891;SDS011;29555;45.350;5.578;2022-11-30T09:54:12;15.38;;;9.75;;
43891;SDS011;29555;45.350;5.578;2022-11-30T09:56:44;14.10;;;9.50;;
43891;SDS011;29555;45.350;5.578;2022-11-30T09:59:15;12.32;;;9.07;;
43891;SDS011;29555;45.350;5.578;2022-11-30T10:01:44;11.13;;;8.00;;
43891;SDS011;29555;45.350;5.578;2022-11-30T10:04:25;11.27;;;7.90;;
43891;SDS011;29555;45.350;5.578;2022-11-30T10:07:08;12.10;;;6.95;;
43891;SDS011;29555;45.350;5.578;2022-11-30T10:09:46;17.02;;;9.55;;
43891;SDS011;29555;45.350;5.578;2022-11-30T10:12:24;23.15;;;12.88;;
43891;SDS011;29555;45.350;5.578;2022-11-30T10:20:29;19.77;;;11.63;;
43891;SDS011;29555;45.350;5.578;2022-11-30T10:26:11;20.67;;;11.95;;
43891;SDS011;29555;45.350;5.578;2022-11-30T10:28:48;15.05;;;10.95;;
43891;SDS011;29555;45.350;5.578;2022-11-30T10:31:18;45.38;;;22.90;;
43891;SDS011;29555;45.350;5.578;2022-11-30T10:33:48;115.20;;;50.80;;
43891;SDS011;29555;45.350;5.578;2022-11-30T10:39:13;157.77;;;74.28;;
43891;SDS011;29555;45.350;5.578;2022-11-30T10:41:50;86.10;;;41.13;;
43891;SDS011;29555;45.350;5.578;2022-11-30T10:44:20;51.47;;;28.48;;
43891;SDS011;29555;45.350;5.578;2022-11-30T10:47:02;69.88;;;37.22;;
43891;SDS011;29555;45.350;5.578;2022-11-30T10:49:31;24.85;;;16.02;;
43891;SDS011;29555;45.350;5.578;2022-11-30T10:52:03;11.73;;;9.35;;
43891;SDS011;29555;45.350;5.578;2022-11-30T10:54:34;14.27;;;10.10;;
43891;SDS011;29555;45.350;5.578;2022-11-30T10:57:01;21.50;;;11.00;;
43891;SDS011;29555;45.350;5.578;2022-11-30T10:59:43;133.05;;;66.38;;
43891;SDS011;29555;45.350;5.578;2022-11-30T11:05:17;14.85;;;10.60;;
43891;SDS011;29555;45.350;5.578;2022-11-30T11:07:57;27.90;;;15.10;;
43891;SDS011;29555;45.350;5.578;2022-11-30T11:10:44;20.95;;;12.30;;
43891;SDS011;29555;45.350;5.578;2022-11-30T11:13:15;16.08;;;10.50;;
43891;SDS011;29555;45.350;5.578;2022-11-30T11:15:58;16.65;;;9.23;;
43891;SDS011;29555;45.350;5.578;2022-11-30T11:18:26;14.95;;;9.40;;
43891;SDS011;29555;45.350;5.578;2022-11-30T11:23:39;8.75;;;6.75;;
43891;SDS011;29555;45.350;5.578;2022-11-30T11:26:07;16.05;;;9.18;;
43891;SDS011;29555;45.350;5.578;2022-11-30T11:31:30;13.60;;;7.22;;
43891;SDS011;29555;45.350;5.578;2022-11-30T11:37:06;10.48;;;7.20;;
43891;SDS011;29555;45.350;5.578;2022-11-30T11:39:38;10.10;;;7.45;;
43891;SDS011;29555;45.350;5.578;2022-11-30T11:42:04;10.80;;;5.93;;
43891;SDS011;29555;45.350;5.578;2022-11-30T11:44:30;11.77;;;8.65;;
43891;SDS011;29555;45.350;5.578;2022-11-30T11:46:56;10.70;;;6.38;;
43891;SDS011;29555;45.350;5.578;2022-11-30T11:49:34;11.93;;;7.72;;
43891;SDS011;29555;45.350;5.578;2022-11-30T11:52:05;13.63;;;7.97;;
43891;SDS011;29555;45.350;5.578;2022-11-30T11:54:41;8.95;;;6.88;;
43891;SDS011;29555;45.350;5.578;2022-11-30T11:57:19;10.85;;;8.45;;
43891;SDS011;29555;45.350;5.578;2022-11-30T11:59:58;11.32;;;9.48;;
43891;SDS011;29555;45.350;5.578;2022-11-30T12:05:43;10.82;;;7.68;;
43891;SDS011;29555;45.350;5.578;2022-11-30T12:11:13;9.45;;;7.25;;
43891;SDS011;29555;45.350;5.578;2022-11-30T12:13:44;11.52;;;7.13;;
43891;SDS011;29555;45.350;5.578;2022-11-30T12:18:48;9.38;;;7.05;;
43891;SDS011;29555;45.350;5.578;2022-11-30T12:21:34;16.63;;;6.45;;
43891;SDS011;29555;45.350;5.578;2022-11-30T12:24:04;9.68;;;6.70;;
43891;SDS011;29555;45.350;5.578;2022-11-30T12:29:20;12.13;;;8.23;;
43891;SDS011;29555;45.350;5.578;2022-11-30T12:34:32;12.65;;;9.75;;
43891;SDS011;29555;45.350;5.578;2022-11-30T12:42:21;9.77;;;7.90;;
43891;SDS011;29555;45.350;5.578;2022-11-30T12:55:28;81.25;;;37.92;;
43891;SDS011;29555;45.350;5.578;2022-11-30T13:06:10;25.42;;;15.65;;
43891;SDS011;29555;45.350;5.578;2022-11-30T13:11:12;11.95;;;9.38;;
43891;SDS011;29555;45.350;5.578;2022-11-30T13:13:44;12.73;;;8.82;;
43891;SDS011;29555;45.350;5.578;2022-11-30T13:16:16;13.30;;;8.68;;
43891;SDS011;29555;45.350;5.578;2022-11-30T13:18:42;19.52;;;13.15;;
43891;SDS011;29555;45.350;5.578;2022-11-30T13:21:12;32.03;;;21.25;;
43891;SDS011;29555;45.350;5.578;2022-11-30T13:23:53;17.00;;;13.40;;
43891;SDS011;29555;45.350;5.578;2022-11-30T13:26:42;22.58;;;13.18;;
43891;SDS011;29555;45.350;5.578;2022-11-30T13:29:26;21.83;;;11.15;;
43891;SDS011;29555;45.350;5.578;2022-11-30T13:32:10;13.40;;;9.30;;
43891;SDS011;29555;45.350;5.578;2022-11-30T13:34:38;13.25;;;9.48;;
43891;SDS011;29555;45.350;5.578;2022-11-30T13:37:07;15.23;;;7.45;;
43891;SDS011;29555;45.350;5.578;2022-11-30T13:47:15;17.27;;;8.38;;
43891;SDS011;29555;45.350;5.578;2022-11-30T13:49:56;15.27;;;8.48;;
43891;SDS011;29555;45.350;5.578;2022-11-30T14:05:46;14.77;;;9.68;;
43891;SDS011;29555;45.350;5.578;2022-11-30T14:21:18;14.65;;;9.05;;
43891;SDS011;29555;45.350;5.578;2022-11-30T14:26:15;12.00;;;8.82;;
43891;SDS011;29555;45.350;5.578;2022-11-30T14:29:01;14.20;;;9.13;;
43891;SDS011;29555;45.350;5.578;2022-11-30T14:31:41;13.43;;;9.48;;
43891;SDS011;29555;45.350;5.578;2022-11-30T14:34:16;11.57;;;8.25;;
43891;SDS011;29555;45.350;5.578;2022-11-30T14:36:55;16.40;;;8.80;;
43891;SDS011;29555;45.350;5.578;2022-11-30T14:39:26;14.88;;;10.00;;
43891;SDS011;29555;45.350;5.578;2022-11-30T14:41:56;13.63;;;8.88;;
43891;SDS011;29555;45.350;5.578;2022-11-30T14:44:22;13.35;;;9.32;;
43891;SDS011;29555;45.350;5.578;2022-11-30T14:46:48;12.57;;;9.70;;
43891;SDS011;29555;45.350;5.578;2022-11-30T14:49:17;12.52;;;8.05;;
43891;SDS011;29555;45.350;5.578;2022-11-30T14:51:45;16.75;;;8.60;;
43891;SDS011;29555;45.350;5.578;2022-11-30T14:57:51;12.48;;;8.32;;
43891;SDS011;29555;45.350;5.578;2022-11-30T15:00:00;10.75;;;8.85;;
43891;SDS011;29555;45.350;5.578;2022-11-30T15:02:30;15.65;;;10.35;;
43891;SDS011;29555;45.350;5.578;2022-11-30T15:05:06;18.50;;;10.15;;
43891;SDS011;29555;45.350;5.578;2022-11-30T15:07:39;21.15;;;11.38;;
43891;SDS011;29555;45.350;5.578;2022-11-30T15:10:08;21.63;;;12.23;;
43891;SDS011;29555;45.350;5.578;2022-11-30T15:12:43;21.33;;;11.77;;
43891;SDS011;29555;45.350;5.578;2022-11-30T15:15:23;29.33;;;13.60;;
43891;SDS011;29555;45.350;5.578;2022-11-30T15:20:35;32.17;;;18.58;;
43891;SDS011;29555;45.350;5.578;2022-11-30T15:25:39;25.58;;;13.80;;
43891;SDS011;29555;45.350;5.578;2022-11-30T15:28:11;22.83;;;14.57;;
43891;SDS011;29555;45.350;5.578;2022-11-30T15:30:44;24.27;;;14.98;;
43891;SDS011;29555;45.350;5.578;2022-11-30T15:33:17;21.90;;;14.38;;
43891;SDS011;29555;45.350;5.578;2022-11-30T15:35:44;29.52;;;16.50;;
43891;SDS011;29555;45.350;5.578;2022-11-30T15:38:24;25.48;;;16.45;;
43891;SDS011;29555;45.350;5.578;2022-11-30T15:40:51;26.60;;;16.63;;
43891;SDS011;29555;45.350;5.578;2022-11-30T15:43:25;26.80;;;14.70;;
43891;SDS011;29555;45.350;5.578;2022-11-30T15:45:57;21.23;;;13.15;;
43891;SDS011;29555;45.350;5.578;2022-11-30T15:48:31;15.25;;;11.25;;
43891;SDS011;29555;45.350;5.578;2022-11-30T15:51:02;18.00;;;13.25;;
43891;SDS011;29555;45.350;5.578;2022-11-30T15:53:49;38.47;;;20.23;;
43891;SDS011;29555;45.350;5.578;2022-11-30T15:56:25;29.15;;;18.00;;
43891;SDS011;29555;45.350;5.578;2022-11-30T15:58:59;39.08;;;21.25;;
43891;SDS011;29555;45.350;5.578;2022-11-30T16:01:30;32.45;;;20.55;;
43891;SDS011;29555;45.350;5.578;2022-11-30T16:07:35;33.13;;;22.45;;
43891;SDS011;29555;45.350;5.578;2022-11-30T16:12:29;21.63;;;12.15;;
43891;SDS011;29555;45.350;5.578;2022-11-30T16:14:56;30.60;;;15.68;;
43891;SDS011;29555;45.350;5.578;2022-11-30T16:17:21;24.65;;;13.05;;
43891;SDS011;29555;45.350;5.578;2022-11-30T16:19:47;27.88;;;13.90;;
43891;SDS011;29555;45.350;5.578;2022-11-30T16:22:13;28.05;;;16.48;;
43891;SDS011;29555;45.350;5.578;2022-11-30T16:24:39;18.52;;;14.18;;
43891;SDS011;29555;45.350;5.578;2022-11-30T16:27:23;31.73;;;16.95;;
43891;SDS011;29555;45.350;5.578;2022-11-30T16:29:49;19.52;;;12.95;;
43891;SDS011;29555;45.350;5.578;2022-11-30T16:32:14;18.42;;;11.35;;
43891;SDS011;29555;45.350;5.578;2022-11-30T16:34:41;22.40;;;11.48;;
43891;SDS011;29555;45.350;5.578;2022-11-30T16:37:09;21.02;;;11.15;;
43891;SDS011;29555;45.350;5.578;2022-11-30T16:39:35;19.13;;;9.95;;
43891;SDS011;29555;45.350;5.578;2022-11-30T16:42:00;16.80;;;10.10;;
43891;SDS011;29555;45.350;5.578;2022-11-30T16:44:27;15.52;;;9.45;;
43891;SDS011;29555;45.350;5.578;2022-11-30T16:46:53;15.57;;;8.48;;
43891;SDS011;29555;45.350;5.578;2022-11-30T16:49:19;12.27;;;9.85;;